Time;durP1;ratioP1;P1;durP2;ratioP2;P2;SDS_P1;SDS_P2;PMS_P1;PMS_P2;Temp;Humidity;BMP_temperature;BMP_pressure;BME280_temperature;BME280_humidity;BME280_pressure;Samples;Min_cycle;Max_cycle;Signal;HPM_P1;HPM_P2
2023/11/21 03:40:04;;;;;;;2.80;1.93;;;;;;;14.03;57.39;98084.19;6644450;29;20209;-88
2023/11/21 03:51:42;;;;;;;2.53;1.80;;;;;;;13.56;57.32;98011.50;6665686;29;20250;-88
2023/11/21 03:55:10;;;;;;;3.17;1.70;;;;;;;13.47;57.25;97992.13;6675916;29;20251;-88
2023/11/21 03:58:32;;;;;;;3.63;1.80;;;;;;;14.30;57.61;98139.47;6666637;29;20298;-87
2023/11/21 04:01:58;;;;;;;3.53;1.80;;;;;;;14.52;56.51;98142.28;6650970;29;20242;-89
2023/11/21 04:05:21;;;;;;;3.60;1.80;;;;;;;14.34;56.27;98109.97;6650957;29;20218;-88
2023/11/21 04:08:44;;;;;;;5.13;1.83;;;;;;;13.41;56.80;97981.44;6650342;29;20213;-88
2023/11/21 04:12:08;;;;;;;3.23;1.97;;;;;;;13.85;56.92;98053.75;6727732;29;20231;-88
2023/11/21 04:15:30;;;;;;;1.60;1.50;;;;;;;13.61;57.23;98039.50;6729494;29;20206;-88
2023/11/21 04:18:54;;;;;;;5.43;3.23;;;;;;;14.01;58.25;98145.94;6729479;29;20212;-88
2023/11/21 04:22:16;;;;;;;3.87;1.83;;;;;;;13.89;58.04;98122.66;6729757;29;20716;-88
2023/11/21 04:25:39;;;;;;;2.67;1.90;;;;;;;13.44;57.81;97999.91;6730005;29;20219;-88
2023/11/21 04:29:00;;;;;;;3.47;1.90;;;;;;;13.03;58.97;97987.47;6729627;29;20305;-88
2023/11/21 04:32:22;;;;;;;2.90;1.90;;;;;;;12.87;59.70;98027.97;6731192;29;20756;-88
2023/11/21 04:35:44;;;;;;;1.43;1.43;;;;;;;12.71;60.46;98061.97;6744356;29;20227;-88
2023/11/21 04:39:06;;;;;;;2.93;1.90;;;;;;;13.57;59.32;98164.84;6755256;29;20268;-88
2023/11/21 04:42:29;;;;;;;2.10;1.90;;;;;;;13.78;59.74;98162.28;6755225;29;20719;-88
2023/11/21 04:45:51;;;;;;;2.10;1.90;;;;;;;13.15;59.90;98074.06;6755237;29;20348;-88
2023/11/21 04:49:13;;;;;;;2.20;2.00;;;;;;;13.54;61.08;98163.44;6755477;29;20703;-88
2023/11/21 04:52:34;;;;;;;2.10;2.00;;;;;;;12.72;60.64;98025.75;6754652;29;20287;-88
2023/11/21 04:55:56;;;;;;;3.50;1.70;;;;;;;13.64;60.48;98171.75;6754891;29;20204;-88
2023/11/21 04:59:26;;;;;;;2.03;1.90;;;;;;;12.96;61.17;98075.25;6754714;29;20640;-88
2023/11/21 05:02:49;;;;;;;5.10;1.93;;;;;;;13.90;60.17;98173.06;6754593;29;20235;-88
2023/11/21 05:06:16;;;;;;;2.60;2.37;;;;;;;13.30;59.62;98036.47;6755041;29;20234;-88
2023/11/21 05:09:43;;;;;;;4.53;3.83;;;;;;;13.63;59.47;98115.13;6756125;29;20597;-88
2023/11/21 05:13:09;;;;;;;3.00;2.43;;;;;;;13.45;60.11;98075.47;6759472;29;20227;-88
2023/11/21 05:16:33;;;;;;;3.07;1.77;;;;;;;13.65;59.86;98130.06;6759883;29;20252;-88
2023/11/21 05:19:55;;;;;;;2.77;2.57;;;;;;;13.99;59.46;98171.63;6759220;29;20223;-88
2023/11/21 05:23:16;;;;;;;4.20;3.13;;;;;;;13.95;59.35;98181.31;6759207;29;20227;-88
2023/11/21 05:26:38;;;;;;;1.70;1.60;;;;;;;12.70;61.63;98140.63;6759256;29;20212;-88
2023/11/21 05:30:00;;;;;;;1.90;1.57;;;;;;;12.13;62.05;98035.97;6759201;29;20607;-88
2023/11/21 05:33:23;;;;;;;3.67;1.70;;;;;;;12.72;62.85;98168.28;6758842;29;20266;-87
2023/11/21 05:36:45;;;;;;;1.80;1.70;;;;;;;13.48;61.24;98177.91;6759028;29;20212;-88
2023/11/21 05:40:29;;;;;;;7.00;1.70;;;;;;;12.55;61.21;98135.69;6759350;29;20231;-88
2023/11/21 05:44:09;;;;;;;2.53;2.10;;;;;;;12.45;60.98;98065.13;6760151;29;20212;-88
2023/11/21 05:47:30;;;;;;;2.07;1.90;;;;;;;13.69;60.50;98200.84;6760792;29;20215;-87
2023/11/21 06:27:15;;;;;;;1.50;1.50;;;;;;;13.31;59.02;98238.44;6730389;29;20231;-88
2023/11/21 06:30:38;;;;;;;2.17;1.57;;;;;;;13.35;60.08;98232.34;6731364;29;20228;-87
2023/11/21 06:34:13;;;;;;;1.67;1.57;;;;;;;13.68;58.83;98235.22;6731089;29;20684;-90
2023/11/21 06:37:39;;;;;;;1.77;1.67;;;;;;;13.15;57.49;98095.72;6708678;29;20209;-87
2023/11/21 06:41:16;;;;;;;3.03;2.00;;;;;;;13.50;58.34;98192.03;6731934;29;20704;-87
2023/11/21 06:44:46;;;;;;;1.70;1.60;;;;;;;13.55;59.23;98254.44;6731591;29;20216;-87
2023/11/21 06:48:13;;;;;;;2.20;1.80;;;;;;;12.85;60.02;98206.75;6731134;29;20235;-87
2023/11/21 06:51:34;;;;;;;1.70;1.60;;;;;;;12.58;59.73;98129.81;6705640;29;20236;-87
2023/11/21 06:54:56;;;;;;;1.70;1.60;;;;;;;12.93;59.14;98119.00;6729327;29;20641;-88
2023/11/21 06:58:18;;;;;;;1.80;1.70;;;;;;;13.75;58.37;98189.03;6731121;29;20212;-88
2023/11/21 07:01:44;;;;;;;2.40;1.80;;;;;;;13.66;59.05;98269.88;6730936;29;20229;-87
2023/11/21 07:05:06;;;;;;;1.87;1.60;;;;;;;13.22;60.22;98232.56;6739248;29;20220;-88
2023/11/21 07:08:47;;;;;;;1.57;1.50;;;;;;;14.08;58.55;98257.75;6728287;29;20212;-88
2023/11/21 07:12:56;;;;;;;;;;;;;;;;;;;;;
2023/11/21 07:16:48;;;;;;;1.87;1.77;;;;;;;13.00;60.15;98174.69;6724148;29;20216;-88
2023/11/21 07:20:58;;;;;;;2.00;1.80;;;;;;;13.90;59.64;98281.47;6738283;29;20327;-88
2023/11/21 08:21:17;;;;;;;3.10;2.80;;;;;;;13.60;59.90;98177.88;6766392;23;20737;-88
2023/11/21 08:25:00;;;;;;;3.50;3.20;;;;;;;14.13;59.84;98228.03;6751178;29;20311;-87
2023/11/21 08:28:56;;;;;;;;;;;;;;;;;;;;;
2023/11/21 08:32:35;;;;;;;4.33;3.00;;;;;;;13.98;59.65;98203.31;6753878;29;20313;-87
2023/11/21 08:36:27;;;;;;;3.13;2.83;;;;;;;14.63;58.43;98244.47;6756400;29;20206;-87
2023/11/21 08:40:20;;;;;;;3.73;2.50;;;;;;;14.38;58.10;98214.97;6755204;29;20219;-87
2023/11/21 08:44:48;;;;;;;;;;;;;;;;;;;;;
2023/11/21 08:53:01;;;;;;;4.70;2.20;;;;;;;14.01;58.48;98208.28;6584174;29;20231;-87
2023/11/21 08:56:22;;;;;;;2.73;2.40;;;;;;;14.45;59.15;98302.44;6759969;29;20193;-86
2023/11/21 08:59:45;;;;;;;3.33;2.37;;;;;;;14.07;58.58;98231.72;6760315;29;20758;-87
2023/11/21 09:03:08;;;;;;;3.10;2.30;;;;;;;14.63;58.28;98288.69;6760034;29;20381;-84
2023/11/21 09:11:02;;;;;;;3.50;2.40;;;;;;;14.87;57.68;98311.13;6754329;29;20231;-86
2023/11/21 09:14:53;;;;;;;2.97;2.30;;;;;;;15.16;57.00;98358.88;6759990;29;20280;-87
2023/11/21 09:27:15;;;;;;;5.57;2.50;;;;;;;14.68;57.42;98252.69;6730391;29;20217;-87
2023/11/21 09:30:57;;;;;;;6.47;2.27;;;;;;;15.50;56.59;98338.81;6748164;29;20291;-87
2023/11/21 09:34:21;;;;;;;5.97;2.10;;;;;;;14.88;56.56;98321.72;6759168;29;20189;-86
2023/11/21 09:37:44;;;;;;;2.60;2.30;;;;;;;15.24;56.86;98361.19;6764426;29;20225;-86
2023/11/21 09:41:07;;;;;;;2.50;2.30;;;;;;;15.05;56.40;98291.88;6761234;29;20239;-86
2023/11/21 09:44:35;;;;;;;2.60;2.40;;;;;;;15.15;55.87;98338.22;6759195;29;20291;-86
2023/11/21 09:48:02;;;;;;;2.03;1.93;;;;;;;15.16;55.40;98271.97;6758710;29;20655;-86
2023/11/21 09:51:25;;;;;;;1.90;1.80;;;;;;;15.19;55.48;98337.50;6759546;29;20254;-86
2023/11/21 09:54:47;;;;;;;3.63;2.50;;;;;;;15.03;55.77;98381.72;6761186;29;20211;-86
2023/11/21 09:58:11;;;;;;;3.17;2.60;;;;;;;14.81;56.93;98390.78;6761966;29;20611;-86
2023/11/21 10:01:37;;;;;;;2.77;2.30;;;;;;;15.31;55.69;98386.28;6758543;29;20315;-86
2023/11/21 10:05:00;;;;;;;2.30;2.20;;;;;;;15.48;55.97;98387.16;6758671;29;20337;-86
2023/11/21 10:08:22;;;;;;;2.37;2.17;;;;;;;15.91;55.03;98393.56;6758510;29;20248;-88
2023/11/21 10:11:45;;;;;;;3.03;2.40;;;;;;;16.11;54.33;98393.88;6758743;29;20292;-86
2023/11/21 10:15:11;;;;;;;2.20;2.00;;;;;;;15.83;54.68;98366.81;6758368;29;20213;-86
2023/11/21 10:18:35;;;;;;;2.37;2.20;;;;;;;15.92;55.19;98400.66;6758653;29;20727;-86
2023/11/21 10:22:01;;;;;;;2.77;2.20;;;;;;;15.96;54.21;98385.50;6760508;29;20723;-87
2023/11/21 10:28:59;;;;;;;2.30;2.10;;;;;;;15.32;56.66;98390.66;6735666;29;20640;-87
2023/11/21 10:32:21;;;;;;;2.10;2.00;;;;;;;15.46;55.40;98321.41;6732966;29;20206;-85
2023/11/21 10:35:50;;;;;;;2.67;2.47;;;;;;;15.07;54.50;98328.59;6731942;29;20216;-85
2023/11/21 10:39:17;;;;;;;3.33;2.00;;;;;;;15.10;56.29;98392.44;6732108;29;20248;-85
2023/11/21 10:42:38;;;;;;;2.37;2.10;;;;;;;14.89;56.78;98404.81;6748326;29;20200;-83
2023/11/21 10:46:00;;;;;;;2.37;2.10;;;;;;;15.18;55.62;98379.28;6766072;29;20225;-87
2023/11/21 10:49:24;;;;;;;4.03;2.50;;;;;;;14.80;56.79;98379.09;6759548;29;20261;-86
2023/11/21 10:52:47;;;;;;;2.00;1.90;;;;;;;14.81;55.19;98341.94;6761349;29;20206;-85
2023/11/21 10:56:13;;;;;;;2.90;2.00;;;;;;;14.44;56.11;98289.13;6761170;29;20216;-86
2023/11/21 10:59:35;;;;;;;4.27;2.00;;;;;;;15.47;54.80;98409.97;6760611;29;20670;-83
2023/11/21 11:02:58;;;;;;;2.10;1.90;;;;;;;15.42;54.67;98408.00;6756675;29;20227;-86
2023/11/21 11:06:20;;;;;;;3.33;2.27;;;;;;;15.49;55.34;98395.06;6740994;29;20214;-85
2023/11/21 11:09:44;;;;;;;4.00;2.73;;;;;;;15.93;56.33;98404.22;6738659;29;20248;-85
2023/11/21 11:13:08;;;;;;;2.13;2.03;;;;;;;16.18;54.44;98405.41;6752718;29;20208;-85
2023/11/21 11:16:30;;;;;;;4.00;2.10;;;;;;;15.88;54.68;98412.28;6761686;29;20215;-87
2023/11/21 11:37:13;;;;;;;3.70;3.40;;;;;;;14.59;59.79;98358.09;6705886;29;20278;-87
2023/11/21 12:08:31;;;;;;;3.37;3.07;;;;;;;14.41;61.08;98274.19;6604809;30;20188;-87
2023/11/21 12:33:36;;;;;;;3.50;2.40;;;;;;;16.38;58.32;98418.47;6648981;29;20222;-87
2023/11/21 12:37:00;;;;;;;3.50;2.90;;;;;;;16.18;56.02;98369.22;6655634;29;20218;-86
2023/11/21 12:40:22;;;;;;;4.60;3.73;;;;;;;16.14;57.11;98428.75;6724295;29;20313;-88
2023/11/21 12:43:44;;;;;;;3.77;2.90;;;;;;;16.20;58.29;98432.34;6734701;29;20237;-87
2023/11/21 12:47:06;;;;;;;4.20;3.27;;;;;;;16.17;57.11;98424.69;6734339;29;20221;-87
2023/11/21 12:50:31;;;;;;;8.70;7.90;;;;;;;15.77;58.53;98440.38;6734991;29;21044;-90
2023/11/21 12:53:54;;;;;;;3.53;2.40;;;;;;;14.50;59.06;98343.22;6739976;29;20649;-87
2023/11/21 12:57:15;;;;;;;2.37;2.20;;;;;;;14.77;59.46;98393.19;6734511;29;20222;-88
2023/11/21 13:00:39;;;;;;;2.07;1.97;;;;;;;14.96;58.32;98437.22;6733936;29;20267;-86
2023/11/21 13:04:02;;;;;;;2.33;2.23;;;;;;;15.23;58.16;98438.31;6734330;29;20752;-87
2023/11/21 13:07:24;;;;;;;2.43;2.23;;;;;;;15.68;56.87;98434.53;6734000;29;20417;-85
2023/11/21 13:10:48;;;;;;;2.80;2.47;;;;;;;15.76;57.79;98404.19;6734656;29;20245;-87
2023/11/21 13:14:11;;;;;;;6.17;4.87;;;;;;;15.96;57.23;98373.78;6733686;29;20909;-87
2023/11/21 13:17:34;;;;;;;2.77;2.57;;;;;;;15.68;56.31;98377.44;6733345;29;20224;-87
2023/11/21 13:20:57;;;;;;;2.97;2.67;;;;;;;15.48;57.36;98436.06;6733406;29;20246;-87
2023/11/21 13:24:19;;;;;;;3.13;2.83;;;;;;;15.69;57.58;98443.50;6733488;29;20604;-87
2023/11/21 13:27:42;;;;;;;2.73;2.53;;;;;;;15.46;57.63;98438.22;6733228;29;20213;-88
2023/11/21 13:31:09;;;;;;;7.73;5.20;;;;;;;15.30;58.75;98444.41;6732463;29;20236;-87
2023/11/21 13:34:31;;;;;;;6.60;4.40;;;;;;;15.14;57.93;98464.19;6733565;29;20188;-88
2023/11/21 13:37:55;;;;;;;2.83;2.53;;;;;;;15.46;56.84;98457.22;6733233;29;20204;-86
2023/11/21 13:41:17;;;;;;;2.80;2.60;;;;;;;15.26;56.80;98421.50;6733266;29;20246;-89
2023/11/21 13:44:44;;;;;;;3.73;3.43;;;;;;;15.69;57.03;98457.91;6733348;29;20929;-87
2023/11/21 13:48:09;;;;;;;3.27;3.07;;;;;;;15.31;57.64;98433.31;6733210;29;20190;-88
2023/11/21 13:51:39;;;;;;;5.53;3.37;;;;;;;14.93;59.89;98476.53;6733137;29;20234;-88
2023/11/21 13:55:04;;;;;;;3.60;3.30;;;;;;;15.29;59.20;98472.63;6733209;29;20231;-87
2023/11/21 13:58:39;;;;;;;3.37;3.07;;;;;;;15.00;60.54;98482.66;6733187;29;20196;-88
2023/11/21 14:02:17;;;;;;;4.40;3.30;;;;;;;15.30;59.88;98485.97;6733292;29;20283;-86
2023/11/21 14:05:39;;;;;;;3.90;3.60;;;;;;;15.01;60.23;98438.16;6747177;29;20221;-87
2023/11/21 14:09:05;;;;;;;3.70;2.93;;;;;;;15.26;60.43;98473.09;6735780;29;20201;-86
2023/11/21 14:12:26;;;;;;;2.90;2.70;;;;;;;15.38;59.18;98503.78;6736834;29;20230;-85
2023/11/21 14:15:50;;;;;;;3.47;3.20;;;;;;;15.40;59.18;98501.69;6759076;29;20384;-86
2023/11/21 14:19:16;;;;;;;2.83;2.63;;;;;;;14.77;59.12;98417.59;6741243;29;20245;-86
2023/11/21 14:22:38;;;;;;;3.40;3.10;;;;;;;15.42;59.29;98521.25;6732876;29;20283;-86
2023/11/21 14:26:01;;;;;;;3.57;3.27;;;;;;;15.43;59.36;98512.03;6732625;29;20632;-86
2023/11/21 14:29:23;;;;;;;7.03;4.17;;;;;;;15.40;59.68;98497.06;6732429;29;20244;-86
2023/11/21 14:32:45;;;;;;;3.47;2.77;;;;;;;15.49;59.05;98527.38;6732648;29;20678;-86
2023/11/21 14:36:09;;;;;;;3.47;3.03;;;;;;;15.13;59.14;98478.84;6752955;29;20239;-86
2023/11/21 14:39:34;;;;;;;3.67;3.20;;;;;;;15.12;59.44;98483.47;6748253;29;20228;-86
2023/11/21 14:42:57;;;;;;;4.00;2.80;;;;;;;15.06;59.35;98446.41;6732275;29;20208;-86
2023/11/21 14:46:19;;;;;;;3.80;2.53;;;;;;;14.95;60.10;98484.44;6755132;29;20259;-86
2023/11/21 14:49:52;;;;;;;2.97;2.60;;;;;;;15.45;59.57;98527.03;6757494;29;20307;-85
2023/11/21 14:53:15;;;;;;;3.07;2.70;;;;;;;15.33;59.54;98523.53;6751922;29;20218;-86
2023/11/21 14:56:38;;;;;;;4.93;2.77;;;;;;;15.47;59.44;98524.09;6754590;29;20215;-86
2023/11/21 14:59:59;;;;;;;2.83;2.60;;;;;;;14.86;58.83;98465.00;6747437;29;20236;-86
2023/11/21 15:03:40;;;;;;;2.50;2.30;;;;;;;15.24;59.37;98514.09;6746054;29;20288;-86
2023/11/21 15:07:02;;;;;;;2.33;2.23;;;;;;;14.91;58.95;98478.66;6731033;29;20231;-86
2023/11/21 15:10:38;;;;;;;3.33;2.50;;;;;;;15.65;58.73;98562.75;6747187;29;20282;-86
2023/11/21 15:14:00;;;;;;;2.40;2.30;;;;;;;15.14;58.40;98491.34;6741838;29;20289;-88
2023/11/21 15:17:25;;;;;;;2.40;2.20;;;;;;;14.50;58.42;98442.78;6760525;29;20259;-86
2023/11/21 15:20:47;;;;;;;2.20;2.10;;;;;;;15.15;58.76;98534.56;6757765;29;20236;-85
2023/11/21 15:24:10;;;;;;;3.53;2.33;;;;;;;15.38;58.74;98542.66;6756589;29;20724;-86
2023/11/21 15:27:33;;;;;;;2.50;2.30;;;;;;;14.58;59.09;98491.25;6756535;29;20208;-86
2023/11/21 15:30:54;;;;;;;3.20;2.60;;;;;;;15.47;58.25;98583.84;6748961;29;20260;-85
2023/11/21 15:34:16;;;;;;;2.33;2.20;;;;;;;15.45;58.14;98573.22;6757089;29;20213;-85
2023/11/21 15:37:38;;;;;;;3.67;2.50;;;;;;;15.29;58.41;98590.25;6757218;29;20276;-85
2023/11/21 15:40:59;;;;;;;3.00;2.80;;;;;;;15.23;58.70;98596.63;6758095;29;20738;-85
2023/11/21 15:44:23;;;;;;;2.80;2.60;;;;;;;15.26;58.28;98589.91;6757350;29;20257;-85
2023/11/21 15:47:46;;;;;;;3.17;2.80;;;;;;;14.91;59.10;98606.25;6745787;29;20243;-85
2023/11/21 15:51:16;;;;;;;3.33;2.97;;;;;;;14.67;58.83;98557.66;6754458;29;20266;-85
2023/11/21 15:54:38;;;;;;;3.23;2.90;;;;;;;14.30;58.41;98538.09;6758002;29;20275;-86
2023/11/21 15:58:03;;;;;;;3.87;3.57;;;;;;;14.87;58.71;98620.56;6755530;29;20272;-86
2023/11/21 16:01:27;;;;;;;4.97;3.83;;;;;;;14.93;57.95;98603.31;6756582;29;20236;-86
2023/11/21 16:04:48;;;;;;;5.23;3.70;;;;;;;14.67;58.22;98558.47;6750098;29;20699;-86
2023/11/21 16:08:10;;;;;;;6.73;4.07;;;;;;;14.63;58.32;98625.13;6743327;29;20309;-85
2023/11/21 16:11:33;;;;;;;6.57;4.37;;;;;;;14.79;58.39;98632.59;6758694;29;20281;-84
2023/11/21 16:14:54;;;;;;;8.47;4.67;;;;;;;14.88;57.92;98636.59;6759109;29;20213;-86
2023/11/21 16:18:18;;;;;;;5.20;4.70;;;;;;;14.86;58.19;98644.13;6758072;29;20254;-84
2023/11/21 16:21:40;;;;;;;5.00;4.50;;;;;;;14.97;58.20;98653.34;6734872;29;20242;-85
2023/11/21 16:25:04;;;;;;;5.73;5.17;;;;;;;15.22;57.59;98654.75;6733691;29;20400;-85
2023/11/21 16:28:25;;;;;;;5.10;4.70;;;;;;;15.10;57.41;98636.81;6757738;29;20219;-86
2023/11/21 16:31:48;;;;;;;6.90;5.03;;;;;;;15.00;57.85;98661.03;6758134;29;20709;-86
2023/11/21 16:35:13;;;;;;;5.43;4.93;;;;;;;15.13;57.73;98658.91;6757419;29;20209;-86
2023/11/21 16:38:34;;;;;;;5.43;4.60;;;;;;;14.83;57.53;98628.34;6765992;29;20303;-86
2023/11/21 16:41:56;;;;;;;5.37;4.87;;;;;;;15.02;57.68;98672.47;6742499;29;20233;-86
2023/11/21 16:45:17;;;;;;;5.80;5.20;;;;;;;14.98;57.58;98676.72;6749826;29;20321;-86
2023/11/21 16:48:39;;;;;;;5.83;5.30;;;;;;;14.93;57.61;98669.28;6748596;29;20223;-85
2023/11/21 16:52:02;;;;;;;5.80;5.20;;;;;;;14.99;57.68;98684.63;6759186;29;20318;-86
2023/11/21 16:55:24;;;;;;;7.97;6.87;;;;;;;14.73;57.71;98676.94;6758148;29;20276;-86
2023/11/21 16:58:46;;;;;;;7.00;6.30;;;;;;;14.74;58.09;98692.16;6748258;29;20208;-86
2023/11/21 17:02:09;;;;;;;8.20;6.00;;;;;;;14.64;58.25;98704.66;6753008;29;20775;-86
2023/11/21 17:05:31;;;;;;;6.90;6.20;;;;;;;14.37;58.48;98670.84;6747531;29;20355;-87
2023/11/21 17:08:54;;;;;;;6.63;6.03;;;;;;;14.49;58.14;98701.53;6737486;29;20208;-88
2023/11/21 17:12:16;;;;;;;6.93;6.33;;;;;;;14.53;58.01;98717.16;6734980;29;20251;-85
2023/11/21 17:15:37;;;;;;;9.60;7.17;;;;;;;14.16;58.31;98720.19;6733606;29;20216;-87
2023/11/21 17:18:59;;;;;;;7.90;6.20;;;;;;;14.10;57.94;98710.25;6741882;29;20215;-87
2023/11/21 17:22:21;;;;;;;7.67;6.87;;;;;;;14.19;57.52;98719.72;6760696;29;20239;-85
2023/11/21 17:25:57;;;;;;;7.80;6.70;;;;;;;13.42;58.63;98666.31;6779448;29;20227;-85
2023/11/21 17:29:24;;;;;;;7.67;6.87;;;;;;;13.49;58.93;98731.22;6764614;29;20210;-85
2023/11/21 18:14:48;;;;;;;10.73;9.50;;;;;;;12.71;61.22;98683.25;6924064;23;20707;-82
2023/11/21 18:51:43;;;;;;;;;;;;;;;;;;;;;
2023/11/21 19:32:24;;;;;;;15.37;12.37;;;;;;;13.89;62.15;98866.06;6730231;29;20232;-86
2023/11/21 20:02:50;;;;;;;16.97;14.77;;;;;;;13.91;62.08;98895.63;6727281;29;20254;-85
2023/11/21 20:06:11;;;;;;;14.23;12.73;;;;;;;13.81;62.16;98892.63;6729821;29;20605;-85
2023/11/21 20:09:33;;;;;;;16.40;12.57;;;;;;;13.90;62.05;98907.53;6729243;29;20430;-85
2023/11/21 20:12:55;;;;;;;16.33;13.60;;;;;;;13.77;62.49;98908.50;6729895;29;20215;-84
2023/11/21 20:16:18;;;;;;;17.77;14.00;;;;;;;13.47;61.40;98804.59;6732195;29;20236;-85
2023/11/21 20:19:43;;;;;;;16.63;13.57;;;;;;;13.89;62.06;98919.44;6716500;29;20248;-84
2023/11/21 20:23:04;;;;;;;18.87;14.00;;;;;;;13.62;62.15;98894.44;6701604;29;20301;-84
2023/11/21 20:26:48;;;;;;;20.97;14.70;;;;;;;13.44;62.33;98897.13;6730106;29;20232;-86
2023/11/21 20:37:14;;;;;;;23.80;19.37;;;;;;;13.58;62.47;98933.06;6750084;29;20240;-87
2023/11/21 21:01:46;;;;;;;20.03;15.00;;;;;;;12.90;62.46;98826.50;6734471;29;20275;-85
2023/11/21 21:05:10;;;;;;;18.93;14.30;;;;;;;13.66;62.58;98973.41;6736277;29;20319;-81
2023/11/21 21:09:07;;;;;;;21.60;13.00;;;;;;;13.27;62.96;98931.19;6736538;29;20341;-85
2023/11/21 21:12:30;;;;;;;18.53;14.60;;;;;;;13.17;63.27;98919.19;6727941;29;20263;-82
2023/11/21 21:15:54;;;;;;;18.87;14.67;;;;;;;12.82;63.26;98871.94;6737712;29;20679;-83
2023/11/21 21:32:38;;;;;;;15.63;13.00;;;;;;;13.33;63.66;98987.19;6626656;29;20607;-85
2023/11/21 21:40:17;;;;;;;27.33;20.67;;;;;;;13.42;62.95;98939.84;6532018;30;20317;-85
2023/11/21 22:28:20;;;;;;;19.13;12.53;;;;;;;12.68;62.73;98852.25;6604626;30;20648;-84
2023/11/21 22:42:03;;;;;;;;;;;;;;;;;;;;;
2023/11/21 23:20:22;;;;;;;22.57;12.17;;;;;;;12.67;62.38;98868.69;6440140;30;20250;-85
2023/11/21 23:23:44;;;;;;;18.20;12.43;;;;;;;13.39;63.54;99024.22;6477887;30;20306;-85
2023/11/21 23:27:06;;;;;;;20.63;12.40;;;;;;;13.35;63.17;99038.44;6505033;30;20255;-86
2023/11/21 23:30:29;;;;;;;20.93;12.97;;;;;;;13.52;62.86;99023.34;6528693;30;20268;-85
